Son Samurai — TC9565 — position and weather

sailwx.info

Track history (hours):
 
Tides and Currents Weather Stations Pressure Air Temp Water Temp Dewpoint Dewpoint Depression Visibility Wind Speed Wind Dir Waves Ship Positions

Son Samurai

Last reported at 2018-Feb-22 21:53 UTC. Time now 2018-Feb-22 22:12 UTC.
Position N 36°53' E 030°42'.

Length 20 m.

Type: Pleasure craft. MMSI: 271042174.

Date/timePositionNaut miles runAvg speedWind from/ knotsBaromVisibWave heightAir tempDewpointWater temp
2018-Feb-22 21:53N 36°53' E 030°42'0 0.0
2018-Feb-22 20:17N 36°53' E 030°42'0 0.0
2018-Feb-22 19:56N 36°53' E 030°42'0 0.0
2018-Feb-22 19:26N 36°53' E 030°42'0 0.0
2018-Feb-22 18:41N 36°53' E 030°42'0 0.0
2018-Feb-22 18:17N 36°53' E 030°42'0 0.0
2018-Feb-22 04:03N 36°53' E 030°42'0 0.0
2018-Feb-22 03:58N 36°53' E 030°42'0 0.0
2018-Feb-22 03:27N 36°53' E 030°42'0 0.0
2018-Feb-22 02:58N 36°53' E 030°42'0 0.0
2018-Feb-22 02:28N 36°53' E 030°42'0 0.0
2018-Feb-22 01:58N 36°53' E 030°42'0 0.0
2018-Feb-22 01:22N 36°53' E 030°42'0 0.0
2018-Feb-22 00:58N 36°53' E 030°42'0 0.0
2018-Feb-22 00:28N 36°53' E 030°42'0 0.0
2018-Feb-21 23:58N 36°53' E 030°42'0 0.0
2018-Feb-21 23:28N 36°53' E 030°42'0 0.0
2018-Feb-21 22:58N 36°53' E 030°42'0 0.0
2018-Feb-21 22:28N 36°53' E 030°42'0 0.0
2018-Feb-21 21:58N 36°53' E 030°42'0 0.0
2018-Feb-21 21:28N 36°53' E 030°42'0 0.0
2018-Feb-21 20:52N 36°53' E 030°42'0 0.0
2018-Feb-21 20:28N 36°53' E 030°42'0 0.0
2018-Feb-21 19:58N 36°53' E 030°42'0 0.0
2018-Feb-21 19:28N 36°53' E 030°42'0 0.0
2018-Feb-21 18:58N 36°53' E 030°42'0 0.0
2018-Feb-21 18:28N 36°53' E 030°42'0 0.0
2018-Feb-21 17:22N 36°53' E 030°42'0 0.0
2018-Feb-21 16:52N 36°53' E 030°42'0 0.0
2018-Feb-21 13:34N 36°53' E 030°42'0 1.5
2018-Feb-21 13:29N 36°53' E 030°42'3 5.5
2018-Feb-21 12:58N 36°51' E 030°45'2 4.0
2018-Feb-21 12:29N 36°51' E 030°47'2 4.3
2018-Feb-21 11:58N 36°51' E 030°44'2 4.7
2018-Feb-21 11:29N 36°53' E 030°42'0 0.1
2018-Feb-21 05:14N 36°53' E 030°42'0 0.0
2018-Feb-21 04:38N 36°53' E 030°42'0 0.0
2018-Feb-20 21:59N 36°53' E 030°42'0 0.0
2018-Feb-20 20:14N 36°53' E 030°42'0 0.0
2018-Feb-20 19:59N 36°53' E 030°42'0 0.0
2018-Feb-20 19:26N 36°53' E 030°42'0 0.0
2018-Feb-20 17:56N 36°53' E 030°42'0 0.0
2018-Feb-20 17:26N 36°53' E 030°42'0 0.0
2018-Feb-20 16:59N 36°53' E 030°42'0 0.0
2018-Feb-20 16:14N 36°53' E 030°42'0 0.0
2018-Feb-20 15:50N 36°53' E 030°42'0 0.0
2018-Feb-20 15:23N 36°53' E 030°42'0 0.0
2018-Feb-20 14:59N 36°53' E 030°42'0 0.0
2018-Feb-20 14:26N 36°53' E 030°42'0 0.0
2018-Feb-20 13:59N 36°53' E 030°42'0 0.0
2018-Feb-20 13:26N 36°53' E 030°42'0 0.0
2018-Feb-20 12:59N 36°53' E 030°42'0 0.0
2018-Feb-20 12:29N 36°53' E 030°42'0 0.0
2018-Feb-20 09:11N 36°53' E 030°42'0 0.0
2018-Feb-20 08:14N 36°53' E 030°42'0 0.0
2018-Feb-20 07:56N 36°53' E 030°42'0 0.0
2018-Feb-19 13:53N 36°53' E 030°42'0 0.0
2018-Feb-19 11:44N 36°53' E 030°42'0 0.0
2018-Feb-19 11:17N 36°53' E 030°42'0 0.0
2018-Feb-19 10:59N 36°53' E 030°42'0 0.0
2018-Feb-19 10:29N 36°53' E 030°42'0 0.0
2018-Feb-19 08:53N 36°53' E 030°42'0 0.0
2018-Feb-19 07:41N 36°53' E 030°42'0 0.0
2018-Feb-19 07:29N 36°53' E 030°42'0 0.0
2018-Feb-19 06:47N 36°53' E 030°42'0 0.0
2018-Feb-19 06:29N 36°53' E 030°42'0 0.0
2018-Feb-19 05:56N 36°53' E 030°42'1 3.2
2018-Feb-19 05:30N 36°52' E 030°43'1 1.6
2018-Feb-19 05:00N 36°53' E 030°42'1 1.2
2018-Feb-19 04:30N 36°53' E 030°42'0 0.0
2018-Feb-19 04:00N 36°53' E 030°42'0 0.0
2018-Feb-19 03:29N 36°53' E 030°42'0 0.0
2018-Feb-19 02:59N 36°53' E 030°42'0 0.0
2018-Feb-19 02:29N 36°53' E 030°42'0 0.0
2018-Feb-19 01:53N 36°53' E 030°42'0 0.0
2018-Feb-19 01:23N 36°53' E 030°42'0 0.0
2018-Feb-19 00:11N 36°53' E 030°42'0 0.0
2018-Feb-18 23:59N 36°53' E 030°42'0 0.0
2018-Feb-18 23:29N 36°53' E 030°42'0 0.0
2018-Feb-18 22:53N 36°53' E 030°42'0 0.0
2018-Feb-18 22:23N 36°53' E 030°42'0 0.0
2018-Feb-18 21:59N 36°53' E 030°42'0 0.0
2018-Feb-18 21:11N 36°53' E 030°42'0 0.0
2018-Feb-18 20:59N 36°53' E 030°42'0 0.0
2018-Feb-18 20:29N 36°53' E 030°42'0 0.0
2018-Feb-18 19:23N 36°53' E 030°42'0 0.0
2018-Feb-18 19:00N 36°53' E 030°42'0 0.0
2018-Feb-18 18:29N 36°53' E 030°42'0 0.0
2018-Feb-18 18:00N 36°53' E 030°42'0 0.0
2018-Feb-18 17:29N 36°53' E 030°42'0 0.0
2018-Feb-18 17:00N 36°53' E 030°42'0 0.0
2018-Feb-18 16:24N 36°53' E 030°42'0 0.0
2018-Feb-18 15:54N 36°53' E 030°42'0 0.0
2018-Feb-18 14:48N 36°53' E 030°42'0 0.6
2018-Feb-18 14:23N 36°53' E 030°42'1 2.6
2018-Feb-18 14:00N 36°52' E 030°43'1 0.9
2018-Feb-18 12:41N 36°53' E 030°42'1 3.1
2018-Feb-18 12:30N 36°53' E 030°42'1 0.0
2018-Feb-17 14:36N 36°53' E 030°42'0 2.5
2018-Feb-17 14:29N 36°53' E 030°42'1 1.5
2018-Feb-17 13:57N 36°52' E 030°43'1 0.9
2018-Feb-17 13:15N 36°53' E 030°42'1 2.5
2018-Feb-17 13:00N 36°52' E 030°43'0 0.7
2018-Feb-17 12:29N 36°52' E 030°42'0 0.2
2018-Feb-17 11:02N 36°53' E 030°42'1 3.8
2018-Feb-17 10:54N 36°52' E 030°42'1 0.3
2018-Feb-17 07:47N 36°53' E 030°42'0 0.0
2018-Feb-17 07:26N 36°53' E 030°42'0 0.0
2018-Feb-17 06:53N 36°53' E 030°42'0 0.0
2018-Feb-17 06:26N 36°53' E 030°42'0 0.0
2018-Feb-17 05:56N 36°53' E 030°42'0 0.0
2018-Feb-17 05:29N 36°53' E 030°42'0 0.0
2018-Feb-17 04:53N 36°53' E 030°42'0 0.0
2018-Feb-17 04:29N 36°53' E 030°42'0 0.0
2018-Feb-17 03:59N 36°53' E 030°42'0 0.0
2018-Feb-17 01:35N 36°53' E 030°42'0 0.0
2018-Feb-17 01:11N 36°53' E 030°42'0 0.0
2018-Feb-17 00:53N 36°53' E 030°42'0 0.0
2018-Feb-17 00:30N 36°53' E 030°42'0 0.0
2018-Feb-16 23:54N 36°53' E 030°42'0 0.0
2018-Feb-16 23:26N 36°53' E 030°42'0 0.0
2018-Feb-16 22:59N 36°53' E 030°42'0 0.0
2018-Feb-16 22:24N 36°53' E 030°42'0 0.0
2018-Feb-16 21:54N 36°53' E 030°42'0 0.0
2018-Feb-16 21:24N 36°53' E 030°42'0 0.0
2018-Feb-16 20:42N 36°53' E 030°42'0 0.0
2018-Feb-16 20:24N 36°53' E 030°42'0 0.0
2018-Feb-16 19:54N 36°53' E 030°42'0 0.0
2018-Feb-16 19:27N 36°53' E 030°42'0 0.0
2018-Feb-16 18:48N 36°53' E 030°42'0 0.0
2018-Feb-16 18:24N 36°53' E 030°42'0 0.0
2018-Feb-16 17:48N 36°53' E 030°42'0 0.0
2018-Feb-16 17:30N 36°53' E 030°42'0 0.0
2018-Feb-16 17:00N 36°53' E 030°42'0 0.0
2018-Feb-16 16:09N 36°53' E 030°42'0 0.0
2018-Feb-16 15:39N 36°53' E 030°42'0 0.0
2018-Feb-16 15:24N 36°53' E 030°42'0 0.0
2018-Feb-16 15:00N 36°53' E 030°42'0 0.0
2018-Feb-16 14:30N 36°53' E 030°42'0 0.0
2018-Feb-16 14:00N 36°53' E 030°42'0 0.0
2018-Feb-16 13:12N 36°53' E 030°42'0 0.0
2018-Feb-16 11:24N 36°53' E 030°42'0 0.0
2018-Feb-16 10:57N 36°53' E 030°42'0 0.0
2018-Feb-16 10:30N 36°53' E 030°42'0 0.0
2018-Feb-16 10:00N 36°53' E 030°42'0 0.0
2018-Feb-16 09:30N 36°53' E 030°42'0 0.0
2018-Feb-16 08:54N 36°53' E 030°42'0 0.0
2018-Feb-16 08:24N 36°53' E 030°42'0 0.0
2018-Feb-16 08:00N 36°53' E 030°42'0 0.0
2018-Feb-16 07:30N 36°53' E 030°42'0 0.0
2018-Feb-16 07:00N 36°53' E 030°42'0 0.0
2018-Feb-16 04:54N 36°53' E 030°42'0 0.0
2018-Feb-16 04:27N 36°53' E 030°42'0 0.0
2018-Feb-16 03:33N 36°53' E 030°42'0 0.0
2018-Feb-16 03:21N 36°53' E 030°42'0 0.0
2018-Feb-16 02:57N 36°53' E 030°42'0 0.0
2018-Feb-16 01:33N 36°53' E 030°42'0 0.0
2018-Feb-16 01:21N 36°53' E 030°42'0 0.0
2018-Feb-16 01:00N 36°53' E 030°42'0 0.0
2018-Feb-16 00:21N 36°53' E 030°42'0 0.0
2018-Feb-15 21:57N 36°53' E 030°42'0 0.0
2018-Feb-15 19:21N 36°53' E 030°42'0 0.0
2018-Feb-15 18:57N 36°53' E 030°42'0 0.0
2018-Feb-15 18:15N 36°53' E 030°42'0 0.0
2018-Feb-15 13:48N 36°53' E 030°42'0 0.0
2018-Feb-15 13:24N 36°53' E 030°42'0 0.0
2018-Feb-15 12:27N 36°53' E 030°42'0 0.0
2018-Feb-15 11:57N 36°53' E 030°42'0 0.0
2018-Feb-15 11:30N 36°53' E 030°42'0 0.0
2018-Feb-15 11:00N 36°53' E 030°42'0 0.0
2018-Feb-15 10:18N 36°53' E 030°42'0 0.0
2018-Feb-15 08:39N 36°53' E 030°42'0 0.0
2018-Feb-15 08:15N 36°53' E 030°42'0 0.0
2018-Feb-15 07:09N 36°53' E 030°42'0 0.0
2018-Feb-15 07:00N 36°53' E 030°42'0 0.0
2018-Feb-15 06:21N 36°53' E 030°42'0 0.0
2018-Feb-15 05:54N 36°53' E 030°42'0 0.0
2018-Feb-15 05:27N 36°53' E 030°42'0 0.0
2018-Feb-15 04:57N 36°53' E 030°42'0 0.0
2018-Feb-15 04:09N 36°53' E 030°42'0 0.0
2018-Feb-15 04:00N 36°53' E 030°42'0 0.0
2018-Feb-15 03:27N 36°53' E 030°42'0 0.0
2018-Feb-15 02:57N 36°53' E 030°42'0 0.0
2018-Feb-15 01:06N 36°53' E 030°42'0 0.0
2018-Feb-15 00:57N 36°53' E 030°42'0 0.0
2018-Feb-15 00:27N 36°53' E 030°42'0 0.0
2018-Feb-14 23:57N 36°53' E 030°42'0 0.0
2018-Feb-14 22:33N 36°53' E 030°42'0 0.0
2018-Feb-14 19:15N 36°53' E 030°42'0 0.0
2018-Feb-14 18:03N 36°53' E 030°42'0 0.0
2018-Feb-14 17:51N 36°53' E 030°42'0 0.0
2018-Feb-14 14:12N 36°53' E 030°42'0 0.0
2018-Feb-14 13:42N 36°53' E 030°42'0 0.0
2018-Feb-14 13:27N 36°53' E 030°42'0 0.0
2018-Feb-14 12:48N 36°53' E 030°42'0 0.0
2018-Feb-14 12:27N 36°53' E 030°42'0 0.0
2018-Feb-14 11:42N 36°53' E 030°42'0 0.0
2018-Feb-14 10:39N 36°53' E 030°42'0 0.0
2018-Feb-14 10:30N 36°53' E 030°42'0 0.0
2018-Feb-14 06:18N 36°53' E 030°42'0 0.0
2018-Feb-13 14:27N 36°53' E 030°42'0 0.0
2018-Feb-13 11:24N 36°53' E 030°42'0 0.0
2018-Feb-13 05:30N 36°53' E 030°42'0 0.0
2018-Feb-13 05:00N 36°53' E 030°42'0 0.0
2018-Feb-13 03:42N 36°53' E 030°42'0 0.0
2018-Feb-13 02:30N 36°53' E 030°42'  
Track history (hours):
 
Tides and Currents Weather Stations Pressure Air Temp Water Temp Dewpoint Dewpoint Depression Visibility Wind Speed Wind Dir Waves Ship Positions

Son Samurai

Last reported at 2018-Feb-22 21:53 UTC. Time now 2018-Feb-22 22:12 UTC.
Position N 36°53' E 030°42'.

Length 20 m.

Type: Pleasure craft. MMSI: 271042174.

Date/timePositionNaut miles runAvg speedWind from/ knotsBaromVisibWave heightAir tempDewpointWater temp
2018-Feb-22 21:53N 36°53' E 030°42'0 0.0
2018-Feb-22 20:17N 36°53' E 030°42'0 0.0
2018-Feb-22 19:56N 36°53' E 030°42'0 0.0
2018-Feb-22 19:26N 36°53' E 030°42'0 0.0
2018-Feb-22 18:41N 36°53' E 030°42'0 0.0
2018-Feb-22 18:17N 36°53' E 030°42'0 0.0
2018-Feb-22 04:03N 36°53' E 030°42'0 0.0
2018-Feb-22 03:58N 36°53' E 030°42'0 0.0
2018-Feb-22 03:27N 36°53' E 030°42'0 0.0
2018-Feb-22 02:58N 36°53' E 030°42'0 0.0
2018-Feb-22 02:28N 36°53' E 030°42'0 0.0
2018-Feb-22 01:58N 36°53' E 030°42'0 0.0
2018-Feb-22 01:22N 36°53' E 030°42'0 0.0
2018-Feb-22 00:58N 36°53' E 030°42'0 0.0
2018-Feb-22 00:28N 36°53' E 030°42'0 0.0
2018-Feb-21 23:58N 36°53' E 030°42'0 0.0
2018-Feb-21 23:28N 36°53' E 030°42'0 0.0
2018-Feb-21 22:58N 36°53' E 030°42'0 0.0
2018-Feb-21 22:28N 36°53' E 030°42'0 0.0
2018-Feb-21 21:58N 36°53' E 030°42'0 0.0
2018-Feb-21 21:28N 36°53' E 030°42'0 0.0
2018-Feb-21 20:52N 36°53' E 030°42'0 0.0
2018-Feb-21 20:28N 36°53' E 030°42'0 0.0
2018-Feb-21 19:58N 36°53' E 030°42'0 0.0
2018-Feb-21 19:28N 36°53' E 030°42'0 0.0
2018-Feb-21 18:58N 36°53' E 030°42'0 0.0
2018-Feb-21 18:28N 36°53' E 030°42'0 0.0
2018-Feb-21 17:22N 36°53' E 030°42'0 0.0
2018-Feb-21 16:52N 36°53' E 030°42'0 0.0
2018-Feb-21 13:34N 36°53' E 030°42'0 1.5
2018-Feb-21 13:29N 36°53' E 030°42'3 5.5
2018-Feb-21 12:58N 36°51' E 030°45'2 4.0
2018-Feb-21 12:29N 36°51' E 030°47'2 4.3
2018-Feb-21 11:58N 36°51' E 030°44'2 4.7
2018-Feb-21 11:29N 36°53' E 030°42'0 0.1
2018-Feb-21 05:14N 36°53' E 030°42'0 0.0
2018-Feb-21 04:38N 36°53' E 030°42'0 0.0
2018-Feb-20 21:59N 36°53' E 030°42'0 0.0
2018-Feb-20 20:14N 36°53' E 030°42'0 0.0
2018-Feb-20 19:59N 36°53' E 030°42'0 0.0
2018-Feb-20 19:26N 36°53' E 030°42'0 0.0
2018-Feb-20 17:56N 36°53' E 030°42'0 0.0
2018-Feb-20 17:26N 36°53' E 030°42'0 0.0
2018-Feb-20 16:59N 36°53' E 030°42'0 0.0
2018-Feb-20 16:14N 36°53' E 030°42'0 0.0
2018-Feb-20 15:50N 36°53' E 030°42'0 0.0
2018-Feb-20 15:23N 36°53' E 030°42'0 0.0
2018-Feb-20 14:59N 36°53' E 030°42'0 0.0
2018-Feb-20 14:26N 36°53' E 030°42'0 0.0
2018-Feb-20 13:59N 36°53' E 030°42'0 0.0
2018-Feb-20 13:26N 36°53' E 030°42'0 0.0
2018-Feb-20 12:59N 36°53' E 030°42'0 0.0
2018-Feb-20 12:29N 36°53' E 030°42'0 0.0
2018-Feb-20 09:11N 36°53' E 030°42'0 0.0
2018-Feb-20 08:14N 36°53' E 030°42'0 0.0
2018-Feb-20 07:56N 36°53' E 030°42'0 0.0
2018-Feb-19 13:53N 36°53' E 030°42'0 0.0
2018-Feb-19 11:44N 36°53' E 030°42'0 0.0
2018-Feb-19 11:17N 36°53' E 030°42'0 0.0
2018-Feb-19 10:59N 36°53' E 030°42'0 0.0
2018-Feb-19 10:29N 36°53' E 030°42'0 0.0
2018-Feb-19 08:53N 36°53' E 030°42'0 0.0
2018-Feb-19 07:41N 36°53' E 030°42'0 0.0
2018-Feb-19 07:29N 36°53' E 030°42'0 0.0
2018-Feb-19 06:47N 36°53' E 030°42'0 0.0
2018-Feb-19 06:29N 36°53' E 030°42'0 0.0
2018-Feb-19 05:56N 36°53' E 030°42'1 3.2
2018-Feb-19 05:30N 36°52' E 030°43'1 1.6
2018-Feb-19 05:00N 36°53' E 030°42'1 1.2
2018-Feb-19 04:30N 36°53' E 030°42'0 0.0
2018-Feb-19 04:00N 36°53' E 030°42'0 0.0
2018-Feb-19 03:29N 36°53' E 030°42'0 0.0
2018-Feb-19 02:59N 36°53' E 030°42'0 0.0
2018-Feb-19 02:29N 36°53' E 030°42'0 0.0
2018-Feb-19 01:53N 36°53' E 030°42'0 0.0
2018-Feb-19 01:23N 36°53' E 030°42'0 0.0
2018-Feb-19 00:11N 36°53' E 030°42'0 0.0
2018-Feb-18 23:59N 36°53' E 030°42'0 0.0
2018-Feb-18 23:29N 36°53' E 030°42'0 0.0
2018-Feb-18 22:53N 36°53' E 030°42'0 0.0
2018-Feb-18 22:23N 36°53' E 030°42'0 0.0
2018-Feb-18 21:59N 36°53' E 030°42'0 0.0
2018-Feb-18 21:11N 36°53' E 030°42'0 0.0
2018-Feb-18 20:59N 36°53' E 030°42'0 0.0
2018-Feb-18 20:29N 36°53' E 030°42'0 0.0
2018-Feb-18 19:23N 36°53' E 030°42'0 0.0
2018-Feb-18 19:00N 36°53' E 030°42'0 0.0
2018-Feb-18 18:29N 36°53' E 030°42'0 0.0
2018-Feb-18 18:00N 36°53' E 030°42'0 0.0
2018-Feb-18 17:29N 36°53' E 030°42'0 0.0
2018-Feb-18 17:00N 36°53' E 030°42'0 0.0
2018-Feb-18 16:24N 36°53' E 030°42'0 0.0
2018-Feb-18 15:54N 36°53' E 030°42'0 0.0
2018-Feb-18 14:48N 36°53' E 030°42'0 0.6
2018-Feb-18 14:23N 36°53' E 030°42'1 2.6
2018-Feb-18 14:00N 36°52' E 030°43'1 0.9
2018-Feb-18 12:41N 36°53' E 030°42'1 3.1
2018-Feb-18 12:30N 36°53' E 030°42'1 0.0
2018-Feb-17 14:36N 36°53' E 030°42'0 2.5
2018-Feb-17 14:29N 36°53' E 030°42'1 1.5
2018-Feb-17 13:57N 36°52' E 030°43'1 0.9
2018-Feb-17 13:15N 36°53' E 030°42'1 2.5
2018-Feb-17 13:00N 36°52' E 030°43'0 0.7
2018-Feb-17 12:29N 36°52' E 030°42'0 0.2
2018-Feb-17 11:02N 36°53' E 030°42'1 3.8
2018-Feb-17 10:54N 36°52' E 030°42'1 0.3
2018-Feb-17 07:47N 36°53' E 030°42'0 0.0
2018-Feb-17 07:26N 36°53' E 030°42'0 0.0
2018-Feb-17 06:53N 36°53' E 030°42'0 0.0
2018-Feb-17 06:26N 36°53' E 030°42'0 0.0
2018-Feb-17 05:56N 36°53' E 030°42'0 0.0
2018-Feb-17 05:29N 36°53' E 030°42'0 0.0
2018-Feb-17 04:53N 36°53' E 030°42'0 0.0
2018-Feb-17 04:29N 36°53' E 030°42'0 0.0
2018-Feb-17 03:59N 36°53' E 030°42'0 0.0
2018-Feb-17 01:35N 36°53' E 030°42'0 0.0
2018-Feb-17 01:11N 36°53' E 030°42'0 0.0
2018-Feb-17 00:53N 36°53' E 030°42'0 0.0
2018-Feb-17 00:30N 36°53' E 030°42'0 0.0
2018-Feb-16 23:54N 36°53' E 030°42'0 0.0
2018-Feb-16 23:26N 36°53' E 030°42'0 0.0
2018-Feb-16 22:59N 36°53' E 030°42'0 0.0
2018-Feb-16 22:24N 36°53' E 030°42'0 0.0
2018-Feb-16 21:54N 36°53' E 030°42'0 0.0
2018-Feb-16 21:24N 36°53' E 030°42'0 0.0
2018-Feb-16 20:42N 36°53' E 030°42'0 0.0
2018-Feb-16 20:24N 36°53' E 030°42'0 0.0
2018-Feb-16 19:54N 36°53' E 030°42'0 0.0
2018-Feb-16 19:27N 36°53' E 030°42'0 0.0
2018-Feb-16 18:48N 36°53' E 030°42'0 0.0
2018-Feb-16 18:24N 36°53' E 030°42'0 0.0
2018-Feb-16 17:48N 36°53' E 030°42'0 0.0
2018-Feb-16 17:30N 36°53' E 030°42'0 0.0
2018-Feb-16 17:00N 36°53' E 030°42'0 0.0
2018-Feb-16 16:09N 36°53' E 030°42'0 0.0
2018-Feb-16 15:39N 36°53' E 030°42'0 0.0
2018-Feb-16 15:24N 36°53' E 030°42'0 0.0
2018-Feb-16 15:00N 36°53' E 030°42'0 0.0
2018-Feb-16 14:30N 36°53' E 030°42'0 0.0
2018-Feb-16 14:00N 36°53' E 030°42'0 0.0
2018-Feb-16 13:12N 36°53' E 030°42'0 0.0
2018-Feb-16 11:24N 36°53' E 030°42'0 0.0
2018-Feb-16 10:57N 36°53' E 030°42'0 0.0
2018-Feb-16 10:30N 36°53' E 030°42'0 0.0
2018-Feb-16 10:00N 36°53' E 030°42'0 0.0
2018-Feb-16 09:30N 36°53' E 030°42'0 0.0
2018-Feb-16 08:54N 36°53' E 030°42'0 0.0
2018-Feb-16 08:24N 36°53' E 030°42'0 0.0
2018-Feb-16 08:00N 36°53' E 030°42'0 0.0
2018-Feb-16 07:30N 36°53' E 030°42'0 0.0
2018-Feb-16 07:00N 36°53' E 030°42'0 0.0
2018-Feb-16 04:54N 36°53' E 030°42'0 0.0
2018-Feb-16 04:27N 36°53' E 030°42'0 0.0
2018-Feb-16 03:33N 36°53' E 030°42'0 0.0
2018-Feb-16 03:21N 36°53' E 030°42'0 0.0
2018-Feb-16 02:57N 36°53' E 030°42'0 0.0
2018-Feb-16 01:33N 36°53' E 030°42'0 0.0
2018-Feb-16 01:21N 36°53' E 030°42'0 0.0
2018-Feb-16 01:00N 36°53' E 030°42'0 0.0
2018-Feb-16 00:21N 36°53' E 030°42'0 0.0
2018-Feb-15 21:57N 36°53' E 030°42'0 0.0
2018-Feb-15 19:21N 36°53' E 030°42'0 0.0
2018-Feb-15 18:57N 36°53' E 030°42'0 0.0
2018-Feb-15 18:15N 36°53' E 030°42'0 0.0
2018-Feb-15 13:48N 36°53' E 030°42'0 0.0
2018-Feb-15 13:24N 36°53' E 030°42'0 0.0
2018-Feb-15 12:27N 36°53' E 030°42'0 0.0
2018-Feb-15 11:57N 36°53' E 030°42'0 0.0
2018-Feb-15 11:30N 36°53' E 030°42'0 0.0
2018-Feb-15 11:00N 36°53' E 030°42'0 0.0
2018-Feb-15 10:18N 36°53' E 030°42'0 0.0
2018-Feb-15 08:39N 36°53' E 030°42'0 0.0
2018-Feb-15 08:15N 36°53' E 030°42'0 0.0
2018-Feb-15 07:09N 36°53' E 030°42'0 0.0
2018-Feb-15 07:00N 36°53' E 030°42'0 0.0
2018-Feb-15 06:21N 36°53' E 030°42'0 0.0
2018-Feb-15 05:54N 36°53' E 030°42'0 0.0
2018-Feb-15 05:27N 36°53' E 030°42'0 0.0
2018-Feb-15 04:57N 36°53' E 030°42'0 0.0
2018-Feb-15 04:09N 36°53' E 030°42'0 0.0
2018-Feb-15 04:00N 36°53' E 030°42'0 0.0
2018-Feb-15 03:27N 36°53' E 030°42'0 0.0
2018-Feb-15 02:57N 36°53' E 030°42'0 0.0
2018-Feb-15 01:06N 36°53' E 030°42'0 0.0
2018-Feb-15 00:57N 36°53' E 030°42'0 0.0
2018-Feb-15 00:27N 36°53' E 030°42'0 0.0
2018-Feb-14 23:57N 36°53' E 030°42'0 0.0
2018-Feb-14 22:33N 36°53' E 030°42'0 0.0
2018-Feb-14 19:15N 36°53' E 030°42'0 0.0
2018-Feb-14 18:03N 36°53' E 030°42'0 0.0
2018-Feb-14 17:51N 36°53' E 030°42'0 0.0
2018-Feb-14 14:12N 36°53' E 030°42'0 0.0
2018-Feb-14 13:42N 36°53' E 030°42'0 0.0
2018-Feb-14 13:27N 36°53' E 030°42'0 0.0
2018-Feb-14 12:48N 36°53' E 030°42'0 0.0
2018-Feb-14 12:27N 36°53' E 030°42'0 0.0
2018-Feb-14 11:42N 36°53' E 030°42'0 0.0
2018-Feb-14 10:39N 36°53' E 030°42'0 0.0
2018-Feb-14 10:30N 36°53' E 030°42'0 0.0
2018-Feb-14 06:18N 36°53' E 030°42'0 0.0
2018-Feb-13 14:27N 36°53' E 030°42'0 0.0
2018-Feb-13 11:24N 36°53' E 030°42'0 0.0
2018-Feb-13 05:30N 36°53' E 030°42'0 0.0
2018-Feb-13 05:00N 36°53' E 030°42'0 0.0
2018-Feb-13 03:42N 36°53' E 030°42'0 0.0
2018-Feb-13 02:30N 36°53' E 030°42'  

Dump ship's entire track history